Time;durP1;ratioP1;P1;durP2;ratioP2;P2;SDS_P1;SDS_P2;PMS_P1;PMS_P2;Temp;Humidity;BMP_temperature;BMP_pressure;BME280_temperature;BME280_humidity;BME280_pressure;Samples;Min_cycle;Max_cycle;Signal;HPM_P1;HPM_P2
2022/09/12 00:01:34;;;;;;;3.50;3.20;;;;;;;13.98;100.00;99443.84;4937349;29;20230;-93
2022/09/12 00:04:01;;;;;;;3.60;3.30;;;;;;;14.01;100.00;99437.94;4917476;29;20274;-92
2022/09/12 00:06:33;;;;;;;3.50;3.27;;;;;;;13.87;100.00;99431.25;4920325;29;20252;-92
2022/09/12 00:09:03;;;;;;;3.67;3.37;;;;;;;13.85;100.00;99430.72;4927762;29;20237;-92
2022/09/12 00:11:30;;;;;;;3.63;3.33;;;;;;;13.86;100.00;99426.94;4918080;29;20708;-93
2022/09/12 00:13:58;;;;;;;3.87;3.47;;;;;;;13.91;100.00;99426.19;4908551;29;20225;-93
2022/09/12 00:16:26;;;;;;;3.37;3.13;;;;;;;13.93;100.00;99427.59;4905002;29;20234;-93
2022/09/12 00:18:53;;;;;;;4.00;3.70;;;;;;;13.97;100.00;99427.91;4905290;29;20260;-91
2022/09/12 00:21:21;;;;;;;3.57;3.20;;;;;;;14.03;100.00;99429.63;4909736;29;20236;-92
2022/09/12 00:23:49;;;;;;;3.70;3.40;;;;;;;13.95;100.00;99432.75;4906889;29;20254;-92
2022/09/12 00:26:17;;;;;;;3.70;3.40;;;;;;;13.96;100.00;99437.88;4930870;29;20241;-93
2022/09/12 00:28:44;;;;;;;4.17;3.77;;;;;;;13.97;100.00;99438.69;4919629;29;20248;-92
2022/09/12 00:31:25;;;;;;;4.17;3.73;;;;;;;13.94;100.00;99434.63;4936163;29;20233;-92
2022/09/12 00:33:54;;;;;;;3.53;3.27;;;;;;;13.93;100.00;99432.97;4913247;29;20261;-92
2022/09/12 00:36:23;;;;;;;3.77;3.20;;;;;;;13.85;100.00;99429.88;4909295;29;20232;-92
2022/09/12 00:38:50;;;;;;;3.47;3.27;;;;;;;13.80;100.00;99430.63;4926702;29;20693;-93
2022/09/12 00:41:26;;;;;;;3.93;3.40;;;;;;;13.67;100.00;99433.63;4886075;29;20241;-93
2022/09/12 00:44:02;;;;;;;3.73;3.50;;;;;;;13.74;100.00;99428.91;4932051;29;20254;-93
2022/09/12 00:46:49;;;;;;;3.50;3.30;;;;;;;13.90;100.00;99428.09;4913331;29;20231;-93
2022/09/12 00:49:22;;;;;;;3.50;3.20;;;;;;;13.89;100.00;99417.56;4929947;29;20767;-92
2022/09/12 00:51:57;;;;;;;3.97;3.67;;;;;;;14.11;100.00;99421.13;4927403;29;20247;-92
2022/09/12 00:54:27;;;;;;;4.13;3.83;;;;;;;13.97;100.00;99420.66;4920113;29;20342;-92
2022/09/12 00:56:56;;;;;;;3.93;3.63;;;;;;;13.94;100.00;99423.84;4904598;29;20236;-93
2022/09/12 00:59:29;;;;;;;4.60;4.20;;;;;;;13.92;100.00;99423.25;4919849;29;20236;-93
2022/09/12 01:01:56;;;;;;;4.17;3.83;;;;;;;13.85;100.00;99419.94;4910924;29;20689;-93
2022/09/12 01:04:24;;;;;;;4.13;3.83;;;;;;;13.89;100.00;99423.75;4933687;29;20226;-92
2022/09/12 01:06:52;;;;;;;4.10;3.80;;;;;;;14.05;100.00;99422.91;4932435;29;20229;-91
2022/09/12 01:09:21;;;;;;;4.20;3.90;;;;;;;13.96;100.00;99419.00;4904041;29;20233;-91
2022/09/12 01:11:48;;;;;;;4.53;4.13;;;;;;;13.95;100.00;99417.38;4911570;29;20240;-92
2022/09/12 01:14:16;;;;;;;4.50;4.20;;;;;;;13.91;100.00;99418.09;4918489;29;20237;-93
2022/09/12 01:16:44;;;;;;;4.60;4.20;;;;;;;14.02;100.00;99409.13;4911237;29;20266;-91
2022/09/12 01:19:48;;;;;;;5.00;4.50;;;;;;;13.91;100.00;99407.34;4929696;29;20644;-91
2022/09/12 01:22:40;;;;;;;5.43;5.03;;;;;;;14.09;100.00;99407.88;4928304;28;20268;-92
2022/09/12 01:25:27;;;;;;;5.60;5.13;;;;;;;13.98;100.00;99402.59;4920193;29;20797;-91
2022/09/12 01:28:13;;;;;;;5.50;5.00;;;;;;;13.90;100.00;99406.56;4919592;29;20714;-91
2022/09/12 01:30:59;;;;;;;5.73;5.33;;;;;;;13.80;100.00;99409.09;4928852;29;20315;-91
2022/09/12 01:33:33;;;;;;;5.83;5.43;;;;;;;13.93;100.00;99406.03;4926633;29;20282;-92
2022/09/12 01:36:16;;;;;;;6.00;5.50;;;;;;;13.78;100.00;99402.28;4935621;29;20238;-93
2022/09/12 01:38:47;;;;;;;6.40;5.90;;;;;;;13.78;100.00;99400.41;4935360;29;20229;-92
2022/09/12 01:41:19;;;;;;;6.40;5.90;;;;;;;13.97;100.00;99399.09;4918902;29;20240;-93
2022/09/12 01:44:32;;;;;;;6.57;5.97;;;;;;;13.94;100.00;99386.13;4919980;29;20324;-92
2022/09/12 01:47:07;;;;;;;6.10;5.60;;;;;;;13.89;100.00;99391.44;4915942;29;20323;-93
2022/09/12 01:50:11;;;;;;;6.13;5.63;;;;;;;13.85;100.00;99395.69;4919620;29;20229;-93
2022/09/12 01:52:47;;;;;;;6.47;5.97;;;;;;;13.88;100.00;99392.50;4934871;29;20240;-93
2022/09/12 01:55:24;;;;;;;6.43;5.93;;;;;;;13.83;100.00;99397.81;4932137;29;20268;-93
2022/09/12 01:57:59;;;;;;;6.10;5.60;;;;;;;13.82;100.00;99396.16;4901951;29;20235;-94
2022/09/12 02:00:26;;;;;;;7.00;6.40;;;;;;;13.79;100.00;99393.16;4900901;29;20706;-94
2022/09/12 02:03:02;;;;;;;6.60;5.97;;;;;;;13.76;100.00;99383.72;4884099;29;20233;-92
2022/09/12 02:05:32;;;;;;;6.43;5.93;;;;;;;13.67;100.00;99385.97;4930946;29;20656;-94
2022/09/12 02:08:08;;;;;;;6.47;5.97;;;;;;;13.58;100.00;99392.00;4904025;29;20321;-94
2022/09/12 02:10:49;;;;;;;6.70;6.20;;;;;;;13.60;100.00;99388.03;4934655;29;20233;-95
2022/09/12 02:13:32;;;;;;;6.47;5.97;;;;;;;13.52;100.00;99393.81;4919298;29;20256;-93
2022/09/12 02:16:23;;;;;;;6.23;5.63;;;;;;;13.48;100.00;99391.88;4935022;29;20771;-91
2022/09/12 02:18:53;;;;;;;6.53;6.03;;;;;;;13.56;100.00;99383.38;4939395;29;20329;-92
2022/09/12 02:21:22;;;;;;;6.57;6.07;;;;;;;13.57;100.00;99382.31;4916532;29;20237;-92
2022/09/12 02:23:54;;;;;;;6.40;5.90;;;;;;;13.52;100.00;99379.56;4919153;29;20237;-94
2022/09/12 02:26:28;;;;;;;6.63;6.03;;;;;;;13.46;100.00;99378.66;4915943;29;20582;-94
2022/09/12 02:28:56;;;;;;;6.27;5.77;;;;;;;13.44;100.00;99372.69;4917151;29;20316;-94
2022/09/12 02:31:35;;;;;;;7.40;6.70;;;;;;;13.38;100.00;99375.56;4909757;29;20223;-93
2022/09/12 02:34:38;;;;;;;6.00;5.50;;;;;;;13.59;100.00;99372.94;4919196;29;20237;-93
2022/09/12 02:37:26;;;;;;;6.97;6.40;;;;;;;13.72;100.00;99374.47;4907474;29;20245;-91
2022/09/12 02:39:54;;;;;;;6.40;5.90;;;;;;;13.67;100.00;99377.06;4938561;29;20241;-92
2022/09/12 02:42:22;;;;;;;6.50;5.90;;;;;;;13.61;100.00;99372.69;4919545;29;20240;-91
2022/09/12 02:44:50;;;;;;;6.80;6.20;;;;;;;13.72;100.00;99369.09;4905968;29;20272;-91
2022/09/12 02:47:22;;;;;;;6.67;6.17;;;;;;;13.82;100.00;99365.72;4923223;29;20229;-90
2022/09/12 02:49:49;;;;;;;6.33;5.83;;;;;;;13.82;100.00;99371.13;4935456;29;20226;-90
2022/09/12 02:52:15;;;;;;;6.50;5.90;;;;;;;13.77;100.00;99366.47;4938133;29;20252;-91
2022/09/12 02:54:43;;;;;;;6.23;5.73;;;;;;;13.92;100.00;99377.47;4935505;29;20263;-90
2022/09/12 02:57:18;;;;;;;6.97;6.27;;;;;;;13.86;100.00;99356.91;4932367;29;20236;-91
2022/09/12 02:59:49;;;;;;;7.13;6.43;;;;;;;13.88;100.00;99354.81;4938171;29;20244;-89
2022/09/12 05:19:57;;;;;;;4.33;3.73;;;;;;;15.01;100.00;99393.72;5908699;23;20321;-90
2022/09/12 05:22:24;;;;;;;4.03;3.73;;;;;;;15.15;100.00;99405.72;4937595;29;20257;-90
2022/09/12 05:24:50;;;;;;;3.83;3.53;;;;;;;15.30;100.00;99413.94;4920626;29;20243;-90
2022/09/12 05:27:17;;;;;;;4.57;3.80;;;;;;;15.43;100.00;99410.03;4920785;29;20233;-90
2022/09/12 05:29:44;;;;;;;3.93;3.63;;;;;;;15.40;100.00;99413.22;4923328;29;20244;-88
2022/09/12 05:32:11;;;;;;;3.90;3.60;;;;;;;15.41;100.00;99417.56;4925895;29;20241;-90
2022/09/12 05:34:39;;;;;;;3.73;3.43;;;;;;;15.41;100.00;99417.56;4905759;29;20226;-90
2022/09/12 05:37:05;;;;;;;4.40;3.73;;;;;;;15.56;100.00;99416.94;4920302;29;20241;-89
2022/09/12 05:39:32;;;;;;;4.00;3.47;;;;;;;15.47;100.00;99413.03;4919195;29;20328;-90
2022/09/12 05:41:59;;;;;;;4.30;3.90;;;;;;;15.38;100.00;99410.81;4932661;29;20240;-92
2022/09/12 05:44:27;;;;;;;3.57;3.37;;;;;;;15.53;100.00;99414.75;4924114;29;20283;-90
2022/09/12 05:46:53;;;;;;;3.87;3.57;;;;;;;15.51;100.00;99412.31;4929693;28;20244;-89
2022/09/12 05:49:20;;;;;;;4.43;4.03;;;;;;;15.62;100.00;99416.72;4928998;29;20229;-89
2022/09/12 05:51:47;;;;;;;3.70;3.40;;;;;;;15.59;100.00;99411.00;4928976;28;20239;-89
2022/09/12 05:54:16;;;;;;;3.97;3.57;;;;;;;15.57;100.00;99418.56;4943307;28;20240;-89
2022/09/12 05:56:44;;;;;;;4.20;3.73;;;;;;;15.59;100.00;99416.41;4929445;28;20319;-89
2022/09/12 05:59:13;;;;;;;4.20;3.43;;;;;;;15.71;100.00;99409.78;4923854;29;20236;-89
2022/09/12 06:01:40;;;;;;;4.00;3.70;;;;;;;15.70;100.00;99412.72;4922458;29;20240;-89
2022/09/12 06:04:07;;;;;;;4.20;3.80;;;;;;;15.68;100.00;99412.97;4924748;28;20237;-90
2022/09/12 06:06:37;;;;;;;4.03;3.63;;;;;;;15.64;100.00;99406.47;4957129;29;20228;-89
2022/09/12 06:09:05;;;;;;;3.93;3.63;;;;;;;15.62;100.00;99414.03;4957140;28;20229;-89
2022/09/12 06:11:36;;;;;;;4.20;3.80;;;;;;;15.68;100.00;99406.75;4945710;28;20232;-89
2022/09/12 06:14:03;;;;;;;4.13;3.73;;;;;;;15.72;100.00;99405.19;4942644;28;20239;-89
2022/09/12 06:16:33;;;;;;;4.47;3.93;;;;;;;15.78;100.00;99414.94;4945694;28;20227;-88
2022/09/12 06:19:05;;;;;;;4.60;4.20;;;;;;;15.82;100.00;99407.94;4941682;28;20240;-89
2022/09/12 06:21:34;;;;;;;5.17;4.00;;;;;;;15.98;100.00;99414.28;4945160;28;20240;-89
2022/09/12 06:24:01;;;;;;;6.67;3.90;;;;;;;16.12;100.00;99401.94;4925367;29;20289;-88
2022/09/12 06:26:28;;;;;;;5.40;3.97;;;;;;;16.24;100.00;99416.06;4929288;28;20241;-90
2022/09/12 06:28:56;;;;;;;4.43;4.03;;;;;;;16.33;100.00;99419.13;4953770;28;20228;-89
2022/09/12 06:31:34;;;;;;;4.87;4.03;;;;;;;16.60;100.00;99425.22;4957578;28;20232;-92
2022/09/12 06:34:04;;;;;;;4.20;3.90;;;;;;;16.85;100.00;99425.31;4933140;28;20236;-91
2022/09/12 06:36:33;;;;;;;5.37;4.10;;;;;;;17.06;100.00;99424.31;4940093;28;20237;-87
2022/09/12 06:39:11;;;;;;;4.47;4.03;;;;;;;17.15;100.00;99421.91;4934909;28;20719;-90
2022/09/12 06:41:38;;;;;;;4.03;3.63;;;;;;;17.28;100.00;99420.56;4942742;28;20233;-93
2022/09/12 06:44:14;;;;;;;4.33;3.97;;;;;;;17.39;100.00;99427.63;4948088;28;20235;-91
2022/09/12 06:46:42;;;;;;;4.13;3.80;;;;;;;17.55;100.00;99421.94;4928315;28;20250;-92
2022/09/12 06:49:09;;;;;;;4.40;4.00;;;;;;;17.70;100.00;99425.78;4959699;28;20233;-92
2022/09/12 06:51:36;;;;;;;4.23;3.90;;;;;;;17.79;100.00;99435.00;4941199;28;20247;-92
2022/09/12 06:54:04;;;;;;;3.77;3.47;;;;;;;17.91;100.00;99427.41;4936321;28;20235;-91
2022/09/12 06:56:30;;;;;;;4.30;3.90;;;;;;;18.06;100.00;99427.38;4939922;29;20284;-92
2022/09/12 06:58:58;;;;;;;4.53;3.87;;;;;;;18.24;100.00;99426.84;4924980;29;20233;-90
2022/09/12 07:01:27;;;;;;;4.00;3.60;;;;;;;18.41;100.00;99421.91;4940497;29;20229;-91
2022/09/12 07:03:56;;;;;;;5.63;3.37;;;;;;;18.41;100.00;99421.91;4942997;29;20256;-93
2022/09/12 07:06:30;;;;;;;5.27;3.63;;;;;;;18.68;94.80;99424.28;4927467;28;20232;-91
2022/09/12 07:08:58;;;;;;;4.47;3.30;;;;;;;18.89;93.46;99430.44;4934614;29;20279;-91
2022/09/12 07:11:27;;;;;;;4.13;3.73;;;;;;;19.17;88.73;99429.75;4929398;29;20241;-92
2022/09/12 07:13:55;;;;;;;3.80;3.30;;;;;;;19.38;83.03;99432.34;4926446;29;20237;-91
2022/09/12 07:16:22;;;;;;;3.50;3.20;;;;;;;19.51;79.58;99434.44;4941208;28;20259;-89
2022/09/12 07:18:50;;;;;;;4.20;3.00;;;;;;;19.64;79.79;99437.31;4929140;29;20251;-89
2022/09/12 07:21:17;;;;;;;3.40;3.10;;;;;;;20.03;76.77;99442.72;4926266;28;20321;-89
2022/09/12 07:23:44;;;;;;;3.50;3.20;;;;;;;19.84;74.08;99435.53;4945310;28;20232;-89
2022/09/12 07:26:12;;;;;;;3.50;3.17;;;;;;;19.80;74.40;99443.47;4945832;28;20229;-90
2022/09/12 07:28:39;;;;;;;3.23;2.97;;;;;;;19.95;73.38;99440.63;4959530;28;20236;-89
2022/09/12 07:31:11;;;;;;;3.47;3.17;;;;;;;19.91;74.57;99438.75;4923939;29;20223;-90
2022/09/12 07:33:39;;;;;;;3.97;3.13;;;;;;;20.05;73.47;99447.88;4914265;29;20223;-89
2022/09/12 07:36:09;;;;;;;3.53;3.00;;;;;;;20.12;73.07;99445.63;4936495;28;20238;-89
2022/09/12 07:38:37;;;;;;;3.10;2.80;;;;;;;20.38;72.32;99449.78;4943775;28;20232;-89
2022/09/12 07:41:10;;;;;;;4.00;2.93;;;;;;;20.21;70.80;99441.19;4935779;28;20238;-89
2022/09/12 07:43:37;;;;;;;3.27;2.97;;;;;;;20.21;71.96;99454.78;4921783;29;20301;-90
2022/09/12 07:46:04;;;;;;;4.70;3.17;;;;;;;20.02;71.71;99451.97;4919827;28;20230;-90
2022/09/12 07:48:31;;;;;;;3.53;3.23;;;;;;;19.95;73.44;99446.06;4922178;28;20241;-89
2022/09/12 07:50:59;;;;;;;3.10;2.80;;;;;;;20.17;73.08;99451.03;4918516;29;20224;-90
2022/09/12 07:53:30;;;;;;;3.30;3.00;;;;;;;20.08;72.69;99452.75;4932446;28;20237;-90
2022/09/12 07:55:57;;;;;;;3.30;3.00;;;;;;;20.30;74.14;99463.13;4945801;29;20260;-90
2022/09/12 07:58:24;;;;;;;3.97;2.90;;;;;;;20.18;76.22;99460.81;4928157;28;20257;-88
2022/09/12 08:00:51;;;;;;;4.27;3.23;;;;;;;20.36;76.65;99454.69;4940964;29;20292;-90
2022/09/12 08:03:18;;;;;;;4.07;3.33;;;;;;;19.88;79.17;99455.63;4923329;29;20238;-91
2022/09/12 08:05:45;;;;;;;5.37;3.47;;;;;;;19.72;81.07;99469.34;4937283;28;20234;-90
2022/09/12 08:08:12;;;;;;;3.53;3.23;;;;;;;19.68;83.26;99464.78;4930480;28;20230;-89
2022/09/12 08:10:38;;;;;;;3.63;3.33;;;;;;;19.68;85.36;99462.06;4935413;28;20292;-90
2022/09/12 08:13:06;;;;;;;4.20;3.67;;;;;;;19.57;84.00;99468.66;4945456;28;20232;-90
2022/09/12 08:15:36;;;;;;;3.90;3.50;;;;;;;19.23;87.05;99463.91;4946311;28;20237;-90
2022/09/12 08:18:03;;;;;;;4.20;3.80;;;;;;;19.35;85.40;99463.59;4934980;28;20232;-89
2022/09/12 08:20:29;;;;;;;3.87;3.53;;;;;;;19.53;85.26;99464.88;4940754;29;20857;-90
2022/09/12 08:22:56;;;;;;;4.07;3.77;;;;;;;19.82;80.89;99460.31;4955838;28;20232;-90
2022/09/12 08:25:23;;;;;;;3.60;3.30;;;;;;;20.18;80.78;99464.34;4930551;29;20709;-89
2022/09/12 08:27:49;;;;;;;3.73;3.43;;;;;;;20.38;77.79;99455.22;4916225;29;20235;-89
2022/09/12 08:30:16;;;;;;;4.10;3.70;;;;;;;20.38;75.33;99454.41;4931119;28;20229;-90
2022/09/12 08:32:43;;;;;;;4.97;3.57;;;;;;;20.55;73.42;99450.13;4925174;28;20242;-89
2022/09/12 08:35:09;;;;;;;3.73;3.33;;;;;;;20.58;73.14;99459.59;4929210;29;20235;-90
2022/09/12 08:37:36;;;;;;;3.73;3.43;;;;;;;20.77;72.86;99459.66;4947458;28;20239;-90
2022/09/12 08:40:07;;;;;;;3.47;3.17;;;;;;;20.92;71.32;99454.84;4925952;29;20323;-89
2022/09/12 08:43:20;;;;;;;4.50;3.50;;;;;;;20.95;71.16;99458.91;4922436;29;20674;-90
2022/09/12 08:45:53;;;;;;;11.27;3.70;;;;;;;20.67;71.19;99461.41;4928602;28;20250;-89
2022/09/12 08:48:20;;;;;;;3.63;3.33;;;;;;;20.64;71.36;99451.09;4919119;29;20322;-90
2022/09/12 08:50:47;;;;;;;3.90;3.60;;;;;;;20.79;70.77;99452.84;4921545;29;20265;-89
2022/09/12 08:53:20;;;;;;;3.80;3.47;;;;;;;21.19;66.38;99451.53;4923881;29;20233;-89
2022/09/12 08:55:59;;;;;;;3.93;3.13;;;;;;;21.77;66.48;99452.03;4925931;28;20300;-89
2022/09/12 08:58:28;;;;;;;3.57;3.07;;;;;;;21.77;63.93;99453.94;4938925;29;20237;-88
2022/09/12 09:01:05;;;;;;;3.40;3.10;;;;;;;21.71;63.19;99452.41;4925638;28;20241;-88
2022/09/12 09:03:51;;;;;;;3.73;3.23;;;;;;;21.93;62.03;99449.88;4963214;28;20262;-88
2022/09/12 09:06:36;;;;;;;3.47;3.10;;;;;;;21.29;65.19;99448.66;4934394;29;20244;-89
2022/09/12 09:09:11;;;;;;;3.50;3.20;;;;;;;21.65;65.16;99451.66;4955472;28;20726;-88
2022/09/12 09:11:57;;;;;;;3.60;3.30;;;;;;;21.50;62.41;99443.75;4931585;29;20247;-89
2022/09/12 09:14:49;;;;;;;3.07;2.77;;;;;;;21.29;63.95;99437.78;4950059;28;20240;-91
2022/09/12 09:17:20;;;;;;;3.53;3.20;;;;;;;21.33;63.19;99446.97;4956252;28;20251;-89
2022/09/12 09:19:52;;;;;;;3.53;3.23;;;;;;;20.95;66.04;99443.38;4940733;29;20237;-88
2022/09/12 09:22:28;;;;;;;3.57;3.23;;;;;;;21.26;64.50;99440.28;4931349;28;20386;-89
2022/09/12 09:24:59;;;;;;;3.37;3.07;;;;;;;21.47;63.10;99444.31;4927119;28;20245;-91
2022/09/12 09:27:32;;;;;;;3.17;2.97;;;;;;;21.61;62.31;99449.84;4942126;28;20235;-87
2022/09/12 09:30:16;;;;;;;3.00;2.70;;;;;;;21.38;62.67;99437.91;4930323;28;20312;-88
2022/09/12 09:32:46;;;;;;;2.83;2.63;;;;;;;21.63;61.23;99434.00;4929554;28;20242;-87
2022/09/12 09:35:56;;;;;;;3.87;3.23;;;;;;;21.36;62.61;99440.94;4946008;28;20240;-87
2022/09/12 09:38:33;;;;;;;3.50;2.93;;;;;;;21.35;62.17;99433.06;4943945;28;20239;-88
2022/09/12 09:41:18;;;;;;;3.00;2.80;;;;;;;21.57;62.94;99433.25;4963012;28;20702;-87
2022/09/12 09:43:45;;;;;;;3.23;2.73;;;;;;;21.34;60.44;99431.44;4975964;28;20259;-89
2022/09/12 09:46:12;;;;;;;3.47;2.70;;;;;;;21.37;60.02;99430.88;4944181;28;20240;-87
2022/09/12 09:48:41;;;;;;;2.77;2.57;;;;;;;21.39;60.23;99418.56;4947897;28;20710;-90
2022/09/12 09:51:08;;;;;;;3.03;2.73;;;;;;;21.33;61.06;99427.91;4945903;28;20250;-86
2022/09/12 09:53:41;;;;;;;3.30;3.00;;;;;;;20.98;63.01;99421.00;4953793;28;20239;-85
2022/09/12 09:56:12;;;;;;;3.10;2.80;;;;;;;21.82;58.48;99421.16;4922761;28;20255;-88
2022/09/12 09:58:39;;;;;;;2.73;2.53;;;;;;;21.64;57.32;99424.72;4932572;28;20704;-89
2022/09/12 10:01:15;;;;;;;2.67;2.40;;;;;;;21.71;56.58;99420.50;4950885;28;20237;-90
2022/09/12 10:03:55;;;;;;;3.57;2.60;;;;;;;22.20;56.07;99419.97;4941361;28;20263;-89
2022/09/12 10:06:24;;;;;;;3.50;2.50;;;;;;;22.75;54.80;99414.56;4935258;28;20677;-89
2022/09/12 10:09:04;;;;;;;2.97;2.77;;;;;;;22.89;54.07;99406.34;4959341;28;20272;-89
2022/09/12 10:11:31;;;;;;;2.80;2.60;;;;;;;22.83;55.36;99409.19;4924027;28;20250;-89
2022/09/12 10:14:00;;;;;;;2.87;2.67;;;;;;;22.60;55.31;99404.72;4946883;28;20239;-93
2022/09/12 10:16:32;;;;;;;2.83;2.53;;;;;;;22.25;53.44;99402.69;4933638;28;20318;-92
2022/09/12 10:19:01;;;;;;;2.63;2.43;;;;;;;22.39;53.68;99401.59;4924987;28;20708;-91
2022/09/12 10:21:46;;;;;;;2.73;2.53;;;;;;;22.17;54.11;99396.00;4940593;28;20232;-92
2022/09/12 10:24:35;;;;;;;3.33;3.10;;;;;;;22.64;54.30;99396.72;4925887;28;20232;-89
2022/09/12 10:27:11;;;;;;;2.77;2.57;;;;;;;22.93;53.08;99388.22;4935208;28;20281;-89
2022/09/12 10:29:59;;;;;;;3.83;2.70;;;;;;;22.32;54.50;99387.53;4946207;28;20242;-89
2022/09/12 10:32:37;;;;;;;2.80;2.60;;;;;;;22.51;54.35;99392.09;4944076;28;20229;-89
2022/09/12 10:35:16;;;;;;;3.27;2.90;;;;;;;22.36;55.73;99398.66;4936496;28;20273;-89
2022/09/12 10:37:55;;;;;;;2.83;2.60;;;;;;;22.12;55.56;99398.00;4941277;28;20329;-89
2022/09/12 10:40:25;;;;;;;2.80;2.60;;;;;;;21.67;54.83;99399.59;4974239;28;20225;-89
2022/09/12 10:42:55;;;;;;;2.73;2.53;;;;;;;21.82;56.22;99399.34;4948810;28;20233;-89
2022/09/12 10:45:29;;;;;;;2.60;2.40;;;;;;;21.95;55.67;99402.13;4937652;28;20256;-89
2022/09/12 10:47:58;;;;;;;3.00;2.80;;;;;;;22.29;54.38;99390.88;4942760;28;20280;-89
2022/09/12 10:50:40;;;;;;;3.37;2.80;;;;;;;22.26;54.14;99390.66;4954351;28;20236;-89
2022/09/12 10:53:17;;;;;;;2.60;2.40;;;;;;;22.34;53.83;99384.50;4939631;29;20287;-89
2022/09/12 10:56:21;;;;;;;2.60;2.40;;;;;;;22.77;52.87;99388.53;4943114;28;20241;-89
2022/09/12 10:59:02;;;;;;;2.70;2.50;;;;;;;22.93;52.22;99390.97;4941632;28;20243;-89
2022/09/12 11:01:29;;;;;;;2.83;2.63;;;;;;;23.19;52.20;99387.34;4944509;28;20706;-89
2022/09/12 11:04:02;;;;;;;2.40;2.30;;;;;;;23.03;50.58;99385.28;4944365;28;20220;-89
2022/09/12 11:06:54;;;;;;;3.97;2.40;;;;;;;22.61;51.61;99384.50;4940626;29;20299;-89
2022/09/12 11:09:44;;;;;;;2.50;2.30;;;;;;;22.04;51.86;99393.25;4953739;28;20234;-89
2022/09/12 11:12:33;;;;;;;2.50;2.30;;;;;;;22.53;51.40;99387.13;4933843;28;20232;-88
2022/09/12 11:15:10;;;;;;;2.50;2.30;;;;;;;22.23;51.66;99369.44;4961552;28;20250;-89
2022/09/12 11:17:47;;;;;;;2.87;2.67;;;;;;;22.67;50.56;99368.81;4938529;28;20703;-88
2022/09/12 11:20:28;;;;;;;3.47;2.80;;;;;;;22.68;50.80;99376.69;4953883;28;20251;-89
2022/09/12 11:23:42;;;;;;;4.57;2.47;;;;;;;22.69;51.17;99372.84;4942897;28;20232;-88
2022/09/12 11:26:33;;;;;;;2.80;2.43;;;;;;;23.20;49.59;99371.75;4936640;28;20240;-88
2022/09/12 11:29:03;;;;;;;2.37;2.17;;;;;;;23.45;48.52;99365.75;4943465;28;20228;-88
2022/09/12 11:31:42;;;;;;;2.60;2.40;;;;;;;22.92;49.47;99353.81;4960709;28;20248;-88
2022/09/12 11:34:10;;;;;;;5.25;2.53;;;;;;;22.62;49.87;99361.56;4952709;28;20710;-89
2022/09/12 11:37:05;;;;;;;3.30;2.40;;;;;;;22.32;49.47;99356.69;4939372;28;20232;-92
2022/09/12 11:39:42;;;;;;;2.23;2.03;;;;;;;22.48;50.07;99359.94;4958900;28;20240;-91
2022/09/12 11:42:15;;;;;;;2.67;2.47;;;;;;;22.47;50.43;99361.03;4970013;28;20238;-91
2022/09/12 11:44:48;;;;;;;4.77;2.50;;;;;;;22.46;52.17;99367.63;4943904;28;20234;-91
2022/09/12 11:47:17;;;;;;;3.77;2.37;;;;;;;22.74;50.21;99359.13;4947676;28;20242;-89
2022/09/12 11:49:50;;;;;;;2.60;2.40;;;;;;;23.01;49.55;99360.19;4959213;28;20236;-89
2022/09/12 11:52:22;;;;;;;2.60;2.40;;;;;;;23.48;49.20;99359.63;4950130;28;20232;-89
2022/09/12 11:55:09;;;;;;;2.47;2.27;;;;;;;23.82;48.47;99352.78;4931407;28;20234;-90
2022/09/12 11:57:46;;;;;;;3.00;2.25;;;;;;;23.54;48.89;99349.38;4947444;28;20224;-89
2022/09/12 12:00:19;;;;;;;2.65;2.45;;;;;;;23.46;47.52;99350.16;4954581;28;20232;-92
2022/09/12 12:03:10;;;;;;;2.42;2.22;;;;;;;23.61;47.76;99349.75;4959474;28;20236;-90
2022/09/12 12:05:43;;;;;;;2.25;2.13;;;;;;;23.89;49.08;99343.00;4936885;28;20243;-90
2022/09/12 12:08:11;;;;;;;2.60;2.40;;;;;;;23.93;46.72;99340.47;4942745;28;20700;-89
2022/09/12 12:10:40;;;;;;;2.50;2.30;;;;;;;24.18;46.59;99338.97;4959538;28;20254;-94
2022/09/12 12:13:15;;;;;;;3.45;2.30;;;;;;;24.14;46.13;99327.81;4948209;28;21098;-92
2022/09/12 12:15:58;;;;;;;2.40;2.20;;;;;;;24.44;45.60;99328.94;4942441;28;20228;-94
2022/09/12 12:18:27;;;;;;;2.72;2.47;;;;;;;24.38;45.27;99325.53;4938411;28;20229;-93
2022/09/12 12:20:54;;;;;;;2.42;2.20;;;;;;;24.05;46.14;99327.00;4943357;28;20259;-93
2022/09/12 12:23:23;;;;;;;3.35;2.30;;;;;;;23.98;46.38;99321.19;4958651;28;20237;-93
2022/09/12 12:25:52;;;;;;;2.33;2.13;;;;;;;23.63;45.56;99325.63;4962461;28;20235;-92
2022/09/12 12:28:37;;;;;;;2.72;2.30;;;;;;;23.82;44.78;99314.47;4930297;28;20256;-94
2022/09/12 12:31:04;;;;;;;2.85;2.33;;;;;;;23.98;45.14;99321.19;4944011;28;20234;-93
2022/09/12 12:33:31;;;;;;;2.55;2.35;;;;;;;23.66;45.74;99308.59;4956896;28;20616;-94
2022/09/12 12:35:58;;;;;;;2.67;2.47;;;;;;;23.45;47.22;99305.59;4955512;29;20238;-93
2022/09/12 12:38:32;;;;;;;2.88;2.30;;;;;;;23.70;47.53;99312.34;4940172;29;20616;-93
2022/09/12 12:41:18;;;;;;;2.83;2.30;;;;;;;23.52;46.10;99295.00;4960293;28;20262;-93
2022/09/12 12:43:53;;;;;;;2.63;2.20;;;;;;;23.49;45.48;99292.09;4961775;28;20313;-93
2022/09/12 12:46:22;;;;;;;2.63;2.42;;;;;;;23.34;45.89;99290.53;4945009;28;20240;-93
2022/09/12 12:49:00;;;;;;;2.53;2.15;;;;;;;23.69;46.71;99286.91;4943992;28;20228;-92
2022/09/12 12:51:37;;;;;;;2.20;2.10;;;;;;;23.84;45.08;99293.09;4908234;29;20299;-93
2022/09/12 12:54:32;;;;;;;2.55;2.05;;;;;;;24.10;43.88;99289.34;4953944;28;20257;-93
2022/09/12 12:57:22;;;;;;;2.92;2.30;;;;;;;24.39;44.50;99293.50;4938278;28;20229;-92
2022/09/12 12:59:52;;;;;;;3.08;2.40;;;;;;;24.42;43.90;99292.84;4958527;28;20255;-92
2022/09/12 13:02:31;;;;;;;2.28;2.17;;;;;;;24.21;43.83;99291.84;4935674;28;20240;-91
2022/09/12 13:05:01;;;;;;;2.40;2.20;;;;;;;24.16;43.49;99287.31;4950891;28;20221;-92
2022/09/12 13:07:31;;;;;;;2.50;2.30;;;;;;;24.22;43.68;99282.47;4939787;28;20200;-94
2022/09/12 13:09:59;;;;;;;2.38;2.28;;;;;;;24.83;43.69;99292.41;4949836;28;20231;-89
2022/09/12 13:12:32;;;;;;;2.97;2.17;;;;;;;24.55;42.11;99281.75;4931365;28;20237;-90
2022/09/12 13:15:05;;;;;;;2.15;1.90;;;;;;;24.72;42.16;99277.44;4948417;28;20225;-94
2022/09/12 13:17:43;;;;;;;2.00;1.90;;;;;;;24.91;42.99;99284.25;4942438;28;20797;-92
2022/09/12 13:20:12;;;;;;;1.95;1.75;;;;;;;24.99;42.24;99280.69;4966091;28;20618;-93
2022/09/12 13:22:56;;;;;;;2.05;1.90;;;;;;;25.04;41.53;99278.91;4964096;28;20802;-91
2022/09/12 13:25:32;;;;;;;2.20;1.80;;;;;;;25.34;41.44;99278.72;4928763;28;20580;-88
2022/09/12 13:28:04;;;;;;;2.35;2.15;;;;;;;25.55;40.24;99281.63;4933014;29;20223;-90
2022/09/12 13:30:34;;;;;;;2.03;1.90;;;;;;;25.82;40.57;99274.91;4958058;28;20247;-88
2022/09/12 13:33:10;;;;;;;2.00;1.80;;;;;;;25.83;40.57;99277.34;4922642;29;20235;-89
2022/09/12 13:36:14;;;;;;;1.90;1.70;;;;;;;25.97;41.09;99268.88;4959082;28;20254;-88
2022/09/12 13:38:56;;;;;;;2.13;2.00;;;;;;;26.10;40.01;99259.63;4888292;29;20322;-88
2022/09/12 13:41:43;;;;;;;2.28;2.00;;;;;;;26.51;39.19;99263.59;4930159;28;20314;-89
2022/09/12 13:44:14;;;;;;;2.15;2.00;;;;;;;26.76;37.39;99261.81;4951891;28;20254;-88
2022/09/12 13:46:41;;;;;;;2.00;1.90;;;;;;;26.60;37.59;99258.84;4939237;28;20237;-86
2022/09/12 13:49:40;;;;;;;2.20;2.00;;;;;;;25.94;39.00;99261.31;4941689;28;20256;-88
2022/09/12 13:52:15;;;;;;;1.90;1.80;;;;;;;25.81;39.85;99262.31;4891521;28;20235;-89
2022/09/12 13:54:43;;;;;;;2.10;2.00;;;;;;;26.33;38.41;99257.41;4944332;28;20298;-92
2022/09/12 13:57:26;;;;;;;2.67;2.03;;;;;;;26.42;38.20;99260.09;4926648;28;20239;-90
2022/09/12 13:59:54;;;;;;;1.90;1.80;;;;;;;25.68;38.22;99255.91;4957785;28;20246;-91
2022/09/12 14:02:23;;;;;;;2.00;1.77;;;;;;;25.55;38.19;99254.19;4942561;28;20224;-88
2022/09/12 14:05:10;;;;;;;1.70;1.60;;;;;;;25.40;39.42;99250.00;4924686;29;20235;-87
2022/09/12 14:07:50;;;;;;;3.33;1.88;;;;;;;25.13;39.39;99244.91;4935138;28;20228;-90
2022/09/12 14:10:21;;;;;;;1.98;1.88;;;;;;;25.14;39.90;99248.44;4973349;28;20708;-87
2022/09/12 14:12:49;;;;;;;2.30;2.10;;;;;;;24.37;41.57;99247.25;4934403;28;20708;-86
2022/09/12 14:15:21;;;;;;;2.45;2.22;;;;;;;24.61;41.16;99249.53;4938098;28;20308;-89
2022/09/12 14:17:53;;;;;;;2.42;1.85;;;;;;;24.34;41.88;99239.69;4926563;28;20231;-88